createdAt,value
2023-02-28T00:00:45.165Z,0.40
2023-02-28T00:03:19.417Z,0.30
2023-02-28T00:05:55.984Z,0.50
2023-02-28T00:08:28.697Z,0.50
2023-02-28T00:10:59.962Z,0.30
2023-02-28T00:13:34.280Z,0.40
2023-02-28T00:16:11.635Z,0.50
2023-02-28T00:18:43.019Z,0.50
2023-02-28T00:21:16.798Z,0.40
2023-02-28T00:23:48.633Z,0.47
2023-02-28T00:26:21.691Z,0.30
2023-02-28T00:28:54.425Z,0.50
2023-02-28T00:31:25.394Z,0.50
2023-02-28T00:33:56.465Z,0.40
2023-02-28T00:36:29.250Z,0.50
2023-02-28T00:39:00.859Z,0.30
2023-02-28T00:41:32.212Z,0.50
2023-02-28T00:44:05.820Z,0.50
2023-02-28T00:46:41.592Z,0.40
2023-02-28T00:49:14.852Z,0.45
2023-02-28T00:51:47.139Z,0.50
2023-02-28T00:54:18.574Z,0.47
2023-02-28T00:59:27.999Z,0.38
2023-02-28T01:01:59.620Z,0.50
2023-02-28T01:04:31.092Z,0.30
2023-02-28T01:07:07.188Z,0.40
2023-02-28T01:09:42.115Z,0.50
2023-02-28T01:12:15.162Z,0.50
2023-02-28T01:14:50.000Z,0.50
2023-02-28T01:17:20.309Z,0.38
2023-02-28T01:19:57.937Z,0.35
2023-02-28T01:22:30.498Z,0.50
2023-02-28T01:25:04.590Z,0.40
2023-02-28T01:27:41.118Z,0.40
2023-02-28T01:30:14.107Z,0.50
2023-02-28T01:32:47.403Z,0.50
2023-02-28T01:35:22.876Z,0.38
2023-02-28T01:38:01.005Z,0.40
2023-02-28T01:43:06.436Z,0.43
2023-02-28T01:45:41.122Z,0.50
2023-02-28T01:50:49.469Z,0.45
2023-02-28T01:53:33.077Z,0.40
2023-02-28T01:56:03.400Z,0.50
2023-02-28T01:58:35.258Z,0.50
2023-02-28T02:01:12.605Z,0.30
2023-02-28T02:03:44.369Z,0.35
2023-02-28T02:06:16.170Z,0.40
2023-02-28T02:08:50.800Z,0.50
2023-02-28T02:11:29.172Z,0.50
2023-02-28T02:14:20.672Z,0.40
2023-02-28T02:17:05.026Z,0.50
2023-02-28T02:20:24.555Z,0.47
2023-02-28T02:23:30.554Z,0.50
2023-02-28T02:26:26.326Z,0.40
2023-02-28T02:29:46.722Z,0.60
2023-02-28T02:32:41.377Z,0.50
2023-02-28T02:35:26.856Z,0.40
2023-02-28T02:38:05.237Z,0.50
2023-02-28T02:40:41.679Z,0.50
2023-02-28T02:43:23.079Z,0.50
2023-02-28T02:46:02.078Z,0.35
2023-02-28T02:48:43.141Z,0.38
2023-02-28T02:51:25.305Z,0.50
2023-02-28T02:54:00.546Z,0.50
2023-02-28T02:56:34.999Z,0.43
2023-02-28T02:59:11.988Z,0.50
2023-02-28T03:01:45.390Z,0.45
2023-02-28T03:04:21.358Z,0.45
2023-02-28T03:06:58.883Z,0.50
2023-02-28T03:09:30.469Z,0.40
2023-02-28T03:12:02.514Z,0.40
2023-02-28T03:14:50.716Z,0.60
2023-02-28T03:17:43.445Z,0.40
2023-02-28T03:20:24.560Z,0.47
2023-02-28T03:23:05.887Z,0.40
2023-02-28T03:25:48.267Z,0.47
2023-02-28T03:28:28.271Z,0.40
2023-02-28T03:31:04.009Z,0.40
2023-02-28T03:33:39.148Z,0.32
2023-02-28T03:36:15.631Z,0.40
2023-02-28T03:38:51.268Z,0.50
2023-02-28T03:41:33.650Z,0.50
2023-02-28T03:44:19.407Z,0.40
2023-02-28T03:47:04.457Z,0.40
2023-02-28T03:49:39.561Z,0.50
2023-02-28T03:52:13.361Z,0.50
2023-02-28T03:54:54.042Z,0.45
2023-02-28T03:57:33.266Z,0.60
2023-02-28T04:00:09.146Z,0.40
2023-02-28T04:02:47.647Z,0.40
2023-02-28T04:05:20.959Z,0.50
2023-02-28T04:10:30.226Z,0.50
2023-02-28T04:13:01.823Z,0.57
2023-02-28T04:15:38.661Z,0.60
2023-02-28T04:18:10.113Z,0.70
2023-02-28T04:20:41.825Z,0.70
2023-02-28T04:23:14.427Z,0.80
2023-02-28T04:25:53.274Z,0.65
2023-02-28T04:28:24.503Z,0.70
2023-02-28T04:31:00.202Z,0.60
2023-02-28T04:33:31.528Z,0.60
2023-02-28T04:36:08.400Z,0.55
2023-02-28T04:38:43.246Z,0.82
2023-02-28T04:41:18.538Z,0.60
2023-02-28T04:43:53.683Z,0.60
2023-02-28T04:46:26.633Z,0.80
2023-02-28T04:49:02.384Z,0.73
2023-02-28T04:51:36.645Z,0.60
2023-02-28T04:54:10.546Z,0.60
2023-02-28T04:56:44.201Z,0.70
2023-02-28T04:59:16.829Z,0.80
2023-02-28T05:01:52.913Z,0.60
2023-02-28T05:04:26.399Z,0.70
2023-02-28T05:07:00.144Z,0.80
2023-02-28T05:09:37.304Z,0.70
2023-02-28T05:12:10.240Z,0.80
2023-02-28T05:14:41.582Z,0.70
2023-02-28T05:17:15.106Z,0.60
2023-02-28T05:19:45.600Z,0.70
2023-02-28T05:22:20.109Z,0.70
2023-02-28T05:24:49.506Z,0.80
2023-02-28T05:27:22.700Z,0.90
2023-02-28T05:29:55.662Z,0.80
2023-02-28T05:32:26.493Z,0.70
2023-02-28T05:34:56.996Z,0.80
2023-02-28T05:37:26.766Z,1.08
2023-02-28T05:39:57.197Z,0.80
2023-02-28T05:42:28.934Z,0.90
2023-02-28T05:44:58.732Z,0.80
2023-02-28T05:47:29.652Z,0.80
2023-02-28T05:50:00.268Z,0.80
2023-02-28T05:52:31.872Z,0.98
2023-02-28T05:57:36.992Z,0.80
2023-02-28T06:00:07.737Z,0.80
2023-02-28T06:02:37.142Z,0.90
2023-02-28T06:05:15.206Z,1.05
2023-02-28T06:07:47.061Z,0.93
2023-02-28T06:10:16.943Z,0.90
2023-02-28T06:12:47.863Z,1.67
2023-02-28T06:15:19.972Z,1.10
2023-02-28T06:17:49.159Z,1.23
2023-02-28T06:20:20.245Z,1.20
2023-02-28T06:22:51.593Z,1.00
2023-02-28T06:25:21.468Z,1.00
2023-02-28T06:27:52.516Z,1.02
2023-02-28T08:44:10.118Z,225.88
2023-02-28T09:30:56.181Z,188.15
2023-02-28T09:34:14.302Z,270.27
2023-02-28T09:40:39.739Z,271.92
2023-02-28T10:18:43.357Z,1.10
2023-02-28T10:21:23.702Z,1.00
2023-02-28T10:26:42.422Z,1.15
2023-02-28T10:29:12.303Z,1.27
2023-02-28T10:31:42.254Z,1.30
2023-02-28T10:34:15.205Z,1.10
2023-02-28T10:36:46.096Z,1.58
2023-02-28T10:39:38.320Z,1.50
2023-02-28T10:42:20.770Z,1.40
2023-02-28T10:44:50.428Z,1.30
2023-02-28T10:47:22.187Z,1.30
2023-02-28T10:49:54.442Z,1.30
2023-02-28T10:52:38.729Z,1.33
2023-02-28T10:55:24.421Z,1.40
2023-02-28T10:57:55.039Z,1.13
2023-02-28T11:00:26.674Z,1.45
2023-02-28T11:02:55.797Z,1.30
2023-02-28T11:05:32.177Z,1.40
2023-02-28T11:08:08.874Z,1.20
2023-02-28T11:10:38.770Z,1.60
2023-02-28T11:13:08.408Z,1.58
2023-02-28T11:15:38.590Z,1.45
2023-02-28T11:18:24.124Z,1.40
2023-02-28T11:20:56.815Z,1.33
2023-02-28T11:23:28.969Z,1.30
2023-02-28T11:26:01.774Z,1.30
2023-02-28T11:28:33.761Z,1.50
2023-02-28T11:31:08.837Z,1.60
2023-02-28T11:33:46.207Z,1.35
2023-02-28T11:36:21.190Z,1.30
2023-02-28T11:39:34.827Z,1.63
2023-02-28T11:43:18.904Z,1.40
2023-02-28T11:50:46.628Z,1.60
2023-02-28T12:02:39.035Z,1.50
2023-02-28T12:23:21.522Z,272.98
2023-02-28T12:26:04.616Z,274.73
2023-02-28T12:45:21.001Z,274.85
2023-02-28T12:47:54.218Z,275.13
2023-02-28T13:04:12.887Z,275.52
2023-02-28T13:07:06.109Z,274.38
2023-02-28T13:20:09.206Z,279.65
2023-02-28T13:22:42.835Z,277.30
2023-02-28T13:25:57.358Z,277.88
2023-02-28T13:29:19.748Z,276.88
2023-02-28T13:37:50.953Z,213.05
2023-02-28T13:40:46.276Z,282.67
2023-02-28T13:43:25.292Z,280.00
2023-02-28T13:46:17.546Z,283.60
2023-02-28T13:48:49.457Z,282.98
2023-02-28T13:51:44.957Z,283.73
2023-02-28T13:54:36.943Z,283.45
2023-02-28T13:57:23.200Z,280.08
2023-02-28T14:00:06.739Z,280.15
2023-02-28T14:02:50.653Z,279.88
2023-02-28T14:05:22.960Z,280.05
2023-02-28T14:07:55.567Z,279.85
2023-02-28T14:10:29.766Z,278.70
2023-02-28T14:13:32.662Z,1.10
2023-02-28T14:16:07.203Z,1.50
2023-02-28T14:18:38.602Z,1.33
2023-02-28T14:21:26.832Z,1.20
2023-02-28T14:24:23.226Z,1.23
2023-02-28T14:27:36.220Z,1.40
2023-02-28T14:30:39.325Z,1.30
2023-02-28T14:33:23.322Z,1.30
2023-02-28T14:36:13.558Z,1.30
2023-02-28T14:38:49.425Z,1.30
2023-02-28T14:41:31.614Z,1.30
2023-02-28T14:44:03.199Z,1.40
2023-02-28T14:49:15.594Z,1.30
2023-02-28T14:51:48.525Z,1.60
2023-02-28T14:54:19.259Z,1.55
2023-02-28T14:56:52.692Z,1.30
2023-02-28T14:59:30.447Z,1.50
2023-02-28T15:02:22.799Z,1.48
2023-02-28T15:05:02.235Z,1.30
2023-02-28T15:07:31.393Z,1.50
2023-02-28T15:12:44.358Z,1.33
2023-02-28T15:15:28.217Z,1.33
2023-02-28T15:18:08.417Z,1.40
2023-02-28T15:20:42.229Z,1.30
2023-02-28T15:23:13.025Z,1.20
2023-02-28T15:25:44.377Z,1.40
2023-02-28T15:28:21.581Z,1.20
2023-02-28T15:30:57.012Z,1.40
2023-02-28T15:33:31.349Z,1.50
2023-02-28T15:36:16.849Z,1.33
2023-02-28T15:38:47.078Z,1.50
2023-02-28T15:41:28.641Z,1.40
2023-02-28T15:44:17.529Z,1.50
2023-02-28T15:46:57.182Z,1.30
2023-02-28T15:49:27.083Z,1.20
2023-02-28T15:52:02.171Z,1.30
2023-02-28T15:54:37.487Z,1.38
2023-02-28T15:57:14.121Z,1.25
2023-02-28T15:59:52.837Z,1.73
2023-02-28T16:02:33.029Z,1.48
2023-02-28T16:05:15.872Z,1.10
2023-02-28T16:07:47.338Z,1.20
2023-02-28T16:10:17.384Z,1.30
2023-02-28T16:12:49.889Z,1.17
2023-02-28T16:15:23.667Z,1.23
2023-02-28T16:17:54.142Z,1.17
2023-02-28T16:20:26.966Z,1.20
2023-02-28T16:23:04.876Z,1.35
2023-02-28T16:25:41.045Z,1.35
2023-02-28T16:28:19.344Z,1.48
2023-02-28T16:30:51.009Z,1.60
2023-02-28T16:33:23.766Z,1.45
2023-02-28T16:35:54.673Z,1.20
2023-02-28T16:38:28.426Z,1.50
2023-02-28T16:41:07.964Z,1.60
2023-02-28T16:43:39.012Z,1.48
2023-02-28T16:46:15.955Z,1.50
2023-02-28T16:48:48.748Z,1.45
2023-02-28T16:51:22.567Z,1.38
2023-02-28T16:54:00.778Z,1.50
2023-02-28T16:56:33.971Z,1.45
2023-02-28T16:59:06.853Z,1.40
2023-02-28T17:01:38.167Z,1.45
2023-02-28T17:04:14.785Z,1.30
2023-02-28T17:06:47.953Z,1.30
2023-02-28T17:09:26.331Z,1.40
2023-02-28T17:11:59.317Z,1.35
2023-02-28T17:14:30.590Z,1.30
2023-02-28T17:17:01.541Z,1.35
2023-02-28T17:19:34.948Z,1.42
2023-02-28T17:22:06.798Z,1.30
2023-02-28T17:24:39.575Z,1.42
2023-02-28T17:27:13.690Z,1.83
2023-02-28T17:29:45.654Z,1.30
2023-02-28T17:32:18.174Z,1.52
2023-02-28T17:34:52.037Z,1.30
2023-02-28T17:37:23.393Z,1.50
2023-02-28T17:39:57.662Z,1.45
2023-02-28T17:42:28.228Z,1.35
2023-02-28T17:44:58.351Z,1.60
2023-02-28T17:47:28.724Z,1.50
2023-02-28T17:49:59.198Z,1.60
2023-02-28T17:52:30.853Z,1.67
2023-02-28T17:55:05.371Z,1.50
2023-02-28T17:57:36.637Z,1.67
2023-02-28T18:00:08.985Z,1.40
2023-02-28T18:02:40.648Z,1.35
2023-02-28T18:05:12.213Z,1.50
2023-02-28T18:07:42.850Z,1.63
2023-02-28T18:10:24.619Z,1.33
2023-02-28T18:12:56.894Z,1.70
2023-02-28T18:15:29.362Z,1.50
2023-02-28T18:18:04.195Z,1.60
2023-02-28T18:20:34.930Z,1.63
2023-02-28T18:23:06.686Z,1.50
2023-02-28T18:25:46.528Z,1.30
2023-02-28T18:28:18.080Z,1.48
2023-02-28T18:33:21.186Z,1.70
2023-02-28T18:36:00.964Z,1.40
2023-02-28T18:38:32.784Z,1.45
2023-02-28T18:41:09.321Z,1.55
2023-02-28T18:43:41.090Z,1.70
2023-02-28T18:48:45.442Z,1.70
2023-02-28T18:51:19.219Z,1.55
2023-02-28T18:53:53.007Z,1.50
2023-02-28T18:56:29.129Z,1.50
2023-02-28T18:59:04.447Z,1.90
2023-02-28T19:01:36.656Z,1.60
2023-02-28T19:04:11.402Z,1.45
2023-02-28T19:06:42.906Z,1.48
2023-02-28T19:09:15.164Z,1.40
2023-02-28T19:11:49.987Z,1.33
2023-02-28T19:14:23.592Z,1.40
2023-02-28T19:16:54.722Z,1.30
2023-02-28T19:19:26.386Z,1.58
2023-02-28T19:24:29.508Z,1.42
2023-02-28T19:27:04.115Z,1.60
2023-02-28T19:29:37.522Z,1.40
2023-02-28T19:32:11.369Z,1.50
2023-02-28T19:34:45.227Z,1.60
2023-02-28T19:37:17.491Z,1.42
2023-02-28T19:39:50.998Z,1.55
2023-02-28T19:42:26.332Z,1.50
2023-02-28T19:44:58.930Z,1.40
2023-02-28T19:47:30.054Z,1.20
2023-02-28T19:50:01.088Z,1.55
2023-02-28T19:52:32.043Z,1.38
2023-02-28T19:55:03.487Z,1.63
2023-02-28T19:57:35.976Z,1.33
2023-02-28T20:00:08.731Z,1.33
2023-02-28T20:02:41.211Z,1.35
2023-02-28T20:05:13.432Z,1.33
2023-02-28T20:07:46.271Z,1.35
2023-02-28T20:10:20.984Z,1.25
2023-02-28T20:12:55.409Z,1.30
2023-02-28T20:15:28.721Z,1.48
2023-02-28T20:18:01.893Z,1.38
2023-02-28T20:20:36.547Z,1.48
2023-02-28T20:23:08.324Z,1.38
2023-02-28T20:25:45.144Z,1.48
2023-02-28T20:28:22.127Z,1.50
2023-02-28T20:30:55.052Z,1.30
2023-02-28T20:33:28.421Z,1.30
2023-02-28T20:36:03.488Z,1.40
2023-02-28T20:38:37.949Z,1.40
2023-02-28T20:41:10.021Z,1.30
2023-02-28T20:43:45.640Z,1.50
2023-02-28T20:46:21.058Z,1.40
2023-02-28T20:48:52.751Z,1.48
2023-02-28T20:51:26.025Z,1.10
2023-02-28T20:53:57.945Z,1.30
2023-02-28T20:56:34.132Z,1.40
2023-02-28T20:59:09.749Z,1.40
2023-02-28T21:01:44.579Z,1.23
2023-02-28T21:04:15.941Z,1.30
2023-02-28T21:06:50.203Z,1.30
2023-02-28T21:09:24.564Z,1.58
2023-02-28T21:11:57.224Z,1.30
2023-02-28T21:14:36.366Z,1.20
2023-02-28T21:17:11.683Z,1.40
2023-02-28T21:19:43.457Z,1.17
2023-02-28T21:24:46.169Z,1.50
2023-02-28T21:27:17.288Z,1.40
2023-02-28T21:29:50.924Z,1.77
2023-02-28T21:32:23.162Z,1.50
2023-02-28T21:34:58.795Z,1.40
2023-02-28T21:37:30.176Z,1.10
2023-02-28T21:40:04.058Z,1.23
2023-02-28T21:42:35.309Z,1.20
2023-02-28T21:45:10.662Z,1.13
2023-02-28T21:47:41.611Z,1.40
2023-02-28T21:50:18.484Z,1.20
2023-02-28T21:52:54.000Z,1.30
2023-02-28T21:55:25.483Z,1.20
2023-02-28T21:57:59.653Z,1.20
2023-02-28T22:00:32.877Z,1.20
2023-02-28T22:03:04.545Z,1.30
2023-02-28T22:05:35.713Z,1.38
2023-02-28T22:08:06.685Z,1.33
2023-02-28T22:10:40.424Z,1.35
2023-02-28T22:13:11.915Z,1.30
2023-02-28T22:18:16.585Z,1.35
2023-02-28T22:20:48.137Z,1.30
2023-02-28T22:23:20.640Z,1.30
2023-02-28T22:25:55.564Z,1.30
2023-02-28T22:28:29.276Z,1.20
2023-02-28T22:31:04.410Z,1.30
2023-02-28T22:33:36.061Z,1.10
2023-02-28T22:38:41.907Z,1.20
2023-02-28T22:43:45.755Z,1.30
2023-02-28T22:46:18.207Z,1.30
2023-02-28T22:48:50.490Z,1.10
2023-02-28T22:51:24.977Z,1.20
2023-02-28T22:53:58.790Z,1.35
2023-02-28T22:56:32.616Z,1.10
2023-02-28T22:59:07.881Z,1.13
2023-02-28T23:01:39.904Z,1.20
2023-02-28T23:04:11.958Z,1.30
2023-02-28T23:06:44.399Z,1.40
2023-02-28T23:09:18.998Z,1.20
2023-02-28T23:11:53.582Z,1.40
2023-02-28T23:14:24.563Z,1.30
2023-02-28T23:17:03.208Z,1.40
2023-02-28T23:19:37.653Z,1.40
2023-02-28T23:22:13.993Z,1.58
2023-02-28T23:24:49.578Z,1.17
2023-02-28T23:27:26.510Z,1.20
2023-02-28T23:30:00.085Z,1.40
2023-02-28T23:32:38.285Z,1.10
2023-02-28T23:35:13.251Z,1.23
2023-02-28T23:37:47.294Z,1.40
2023-02-28T23:40:21.470Z,1.15
2023-02-28T23:42:56.032Z,1.25
2023-02-28T23:45:32.097Z,1.30
2023-02-28T23:48:13.575Z,1.23
2023-02-28T23:50:47.998Z,1.30
2023-02-28T23:53:22.025Z,1.23
2023-02-28T23:55:56.335Z,1.10
2023-02-28T23:58:29.620Z,1.20
